Time;durP1;ratioP1;P1;durP2;ratioP2;P2;SDS_P1;SDS_P2;PMS_P1;PMS_P2;Temp;Humidity;BMP_temperature;BMP_pressure;BME280_temperature;BME280_humidity;BME280_pressure;Samples;Min_cycle;Max_cycle;Signal;HPM_P1;HPM_P2
2021/03/06 00:01:42;;;;;;;;;;;;;;;-3.63;70.58;102243.44;4986083;28;19918;-74
2021/03/06 00:04:07;;;;;;;;;;;;;;;-3.67;71.16;102248.25;5011673;28;20010;-73
2021/03/06 00:06:33;;;;;;;;;;;;;;;-3.68;71.22;102255.09;5011311;28;20369;-74
2021/03/06 00:08:58;;;;;;;;;;;;;;;-3.66;71.57;102260.38;5011659;28;20283;-74
2021/03/06 00:11:23;;;;;;;;;;;;;;;-3.63;71.15;102258.03;5011512;28;20016;-74
2021/03/06 00:13:48;;;;;;;;;;;;;;;-3.62;71.34;102252.97;5011564;28;19917;-74
2021/03/06 00:16:14;;;;;;;;;;;;;;;-3.64;71.46;102257.16;5011060;28;19914;-74
2021/03/06 00:18:39;;;;;;;;;;;;;;;-3.67;71.31;102255.97;5011497;28;19920;-74
2021/03/06 00:21:04;;;;;;;;;;;;;;;-3.69;72.04;102257.53;5011463;28;19913;-74
2021/03/06 00:23:30;;;;;;;;;;;;;;;-3.70;71.82;102260.91;5011550;28;20331;-74
2021/03/06 00:25:55;;;;;;;;;;;;;;;-3.73;72.25;102269.31;5011146;28;19964;-74
2021/03/06 00:28:20;;;;;;;;;;;;;;;-3.72;71.71;102268.56;5011811;28;19917;-74
2021/03/06 00:30:45;;;;;;;;;;;;;;;-3.72;72.58;102270.19;5011230;28;19921;-74
2021/03/06 00:33:11;;;;;;;;;;;;;;;-3.69;71.33;102266.19;5011353;28;19924;-74
2021/03/06 00:35:36;;;;;;;;;;;;;;;-3.67;71.36;102274.06;5011089;28;19913;-74
2021/03/06 00:38:02;;;;;;;;;;;;;;;-3.69;71.43;102266.19;5011315;28;20527;-74
2021/03/06 00:40:27;;;;;;;;;;;;;;;-3.72;72.32;102262.47;5011341;28;19921;-74
2021/03/06 00:42:52;;;;;;;;;;;;;;;-3.71;72.20;102267.75;5011320;28;20414;-74
2021/03/06 00:45:18;;;;;;;;;;;;;;;-3.76;71.87;102272.53;5013615;28;19916;-74
2021/03/06 00:47:44;;;;;;;;;;;;;;;-3.76;72.12;102266.50;5014752;28;19917;-74
2021/03/06 00:50:13;;;;;;;;;;;;;;;-3.75;71.59;102260.53;5005243;28;19918;-74
2021/03/06 00:52:40;;;;;;;;;;;;;;;-3.75;72.53;102257.97;5005271;28;20375;-74
2021/03/06 00:55:06;;;;;;;;;;;;;;;-3.74;72.37;102264.94;4988797;28;19940;-74
2021/03/06 00:57:31;;;;;;;;;;;;;;;-3.76;71.29;102257.06;5022276;28;19917;-74
2021/03/06 00:59:57;;;;;;;;;;;;;;;-3.84;72.49;102259.81;5014416;28;19952;-74
2021/03/06 01:02:22;;;;;;;;;;;;;;;-3.89;72.04;102253.41;5014480;28;19987;-74
2021/03/06 01:04:49;;;;;;;;;;;;;;;-3.93;72.25;102244.53;4988782;28;19913;-74
2021/03/06 01:07:15;;;;;;;;;;;;;;;-3.92;72.39;102246.31;5014050;28;19913;-74
2021/03/06 01:09:40;;;;;;;;;;;;;;;-3.94;72.93;102241.81;5014326;28;19913;-74
2021/03/06 01:12:05;;;;;;;;;;;;;;;-4.03;72.91;102237.72;5014222;28;20287;-74
2021/03/06 01:14:30;;;;;;;;;;;;;;;-4.06;72.78;102246.88;5014446;28;19914;-74
2021/03/06 01:16:56;;;;;;;;;;;;;;;-4.13;72.96;102237.75;5013911;28;19914;-74
2021/03/06 01:19:21;;;;;;;;;;;;;;;-4.10;74.50;102243.16;5014200;28;20368;-74
2021/03/06 01:21:46;;;;;;;;;;;;;;;-4.07;73.86;102238.25;5014144;28;19924;-74
2021/03/06 01:24:12;;;;;;;;;;;;;;;-4.08;73.90;102238.16;5014137;28;19913;-74
2021/03/06 01:26:37;;;;;;;;;;;;;;;-4.15;73.76;102231.56;5013748;28;19928;-74
2021/03/06 01:29:02;;;;;;;;;;;;;;;-4.27;72.73;102228.00;5013941;28;20265;-74
2021/03/06 01:31:27;;;;;;;;;;;;;;;-4.38;73.23;102231.41;5013853;28;19939;-74
2021/03/06 01:33:53;;;;;;;;;;;;;;;-4.44;73.15;102229.22;5013947;28;19917;-74
2021/03/06 01:36:18;;;;;;;;;;;;;;;-4.48;73.67;102234.91;5013501;28;19913;-74
2021/03/06 01:38:43;;;;;;;;;;;;;;;-4.47;72.95;102234.16;5013840;28;20459;-74
2021/03/06 01:41:08;;;;;;;;;;;;;;;-4.51;73.57;102234.66;5013731;28;19913;-74
2021/03/06 01:43:34;;;;;;;;;;;;;;;-4.55;74.33;102238.66;5013729;28;19967;-74
2021/03/06 01:45:59;;;;;;;;;;;;;;;-4.56;74.74;102231.69;5013334;28;19919;-74
2021/03/06 01:48:24;;;;;;;;;;;;;;;-4.56;74.82;102231.69;5013577;28;19913;-74
2021/03/06 01:50:51;;;;;;;;;;;;;;;-4.56;74.94;102229.13;5013485;28;19924;-74
2021/03/06 01:53:17;;;;;;;;;;;;;;;-4.53;75.19;102231.97;5013509;28;19914;-74
2021/03/06 01:55:46;;;;;;;;;;;;;;;-4.49;74.93;102228.84;5013057;28;20044;-74
2021/03/06 01:58:13;;;;;;;;;;;;;;;-4.47;74.22;102223.84;5013418;28;19913;-74
2021/03/06 02:00:38;;;;;;;;;;;;;;;-4.47;74.23;102219.56;5013274;28;19920;-74
2021/03/06 02:03:03;;;;;;;;;;;;;;;-4.50;74.63;102216.75;5013369;28;19914;-74
2021/03/06 02:05:29;;;;;;;;;;;;;;;-4.51;74.38;102225.25;5012888;28;19913;-74
2021/03/06 02:07:55;;;;;;;;;;;;;;;-4.52;74.60;102223.44;5013274;28;20346;-74
2021/03/06 02:10:25;;;;;;;;;;;;;;;-4.48;75.06;102225.53;4987341;28;19917;-74
2021/03/06 02:12:59;;;;;;;;;;;;;;;-4.46;75.73;102223.94;4987527;28;19913;-74
2021/03/06 02:15:45;;;;;;;;;;;;;;;-4.43;74.98;102221.63;5012724;28;19913;-74
2021/03/06 02:18:18;;;;;;;;;;;;;;;-4.44;74.55;102217.25;5006096;28;20380;-74
2021/03/06 02:20:51;;;;;;;;;;;;;;;-4.45;75.17;102220.59;5012983;28;20372;-74
2021/03/06 02:23:35;;;;;;;;;;;;;;;-4.46;75.06;102223.03;5012964;28;19999;-74
2021/03/06 02:26:07;;;;;;;;;;;;;;;-4.49;74.63;102234.00;5012625;28;19980;-74
2021/03/06 02:28:49;;;;;;;;;;;;;;;-4.52;74.30;102233.75;5012874;28;20379;-74
2021/03/06 02:31:15;;;;;;;;;;;;;;;-4.55;74.32;102241.25;5006288;28;19940;-74
2021/03/06 02:33:40;;;;;;;;;;;;;;;-4.51;75.76;102235.53;5012763;28;20371;-74
2021/03/06 02:36:08;;;;;;;;;;;;;;;-4.49;74.37;102231.44;5012794;28;19976;-74
2021/03/06 02:38:34;;;;;;;;;;;;;;;-4.48;74.92;102230.66;5003332;28;19920;-74
2021/03/06 02:41:00;;;;;;;;;;;;;;;-4.47;74.43;102227.31;5012660;28;19913;-74
2021/03/06 02:43:26;;;;;;;;;;;;;;;-4.48;74.52;102225.53;5012578;28;19914;-74
2021/03/06 02:45:51;;;;;;;;;;;;;;;-4.49;74.75;102233.09;5012301;28;20029;-74
2021/03/06 02:48:17;;;;;;;;;;;;;;;-4.53;75.43;102231.03;5012543;28;20008;-74
2021/03/06 02:50:42;;;;;;;;;;;;;;;-4.53;75.57;102231.97;5012457;28;19917;-74
2021/03/06 02:53:07;;;;;;;;;;;;;;;-4.51;75.14;102240.69;5012537;28;19971;-74
2021/03/06 02:55:33;;;;;;;;;;;;;;;-4.49;75.35;102236.59;5012155;28;20372;-74
2021/03/06 02:58:03;;;;;;;;;;;;;;;-4.51;74.75;102242.38;5012360;28;20379;-74
2021/03/06 03:00:48;;;;;;;;;;;;;;;-4.54;75.02;102244.72;5012425;28;19963;-74
2021/03/06 03:03:25;;;;;;;;;;;;;;;-4.60;75.22;102247.69;5005619;28;19913;-74
2021/03/06 03:06:06;;;;;;;;;;;;;;;-4.64;74.95;102250.78;5009390;28;19920;-74
2021/03/06 03:08:34;;;;;;;;;;;;;;;-4.67;75.31;102241.13;5011905;28;19913;-74
2021/03/06 03:11:01;;;;;;;;;;;;;;;-4.61;75.82;102238.19;5012025;28;19917;-74
2021/03/06 03:13:40;;;;;;;;;;;;;;;-4.61;75.66;102233.03;5012217;28;20000;-74
2021/03/06 03:16:11;;;;;;;;;;;;;;;-4.60;74.90;102236.50;5004106;28;19913;-74
2021/03/06 03:18:43;;;;;;;;;;;;;;;-4.64;74.45;102233.66;5012109;28;19960;-74
2021/03/06 03:21:11;;;;;;;;;;;;;;;-4.63;75.24;102229.41;5004724;28;20393;-74
2021/03/06 03:23:41;;;;;;;;;;;;;;;-4.62;74.92;102226.94;5011959;28;19959;-74
2021/03/06 03:26:11;;;;;;;;;;;;;;;-4.62;75.79;102228.63;5004151;28;19914;-74
2021/03/06 03:28:38;;;;;;;;;;;;;;;-4.69;74.82;102226.31;5011962;28;19914;-74
2021/03/06 03:31:03;;;;;;;;;;;;;;;-4.76;75.59;102236.91;4983015;28;20316;-74
2021/03/06 03:33:29;;;;;;;;;;;;;;;-4.85;75.14;102237.03;5007344;28;19913;-74
2021/03/06 03:35:55;;;;;;;;;;;;;;;-4.90;75.87;102233.16;5011656;28;20388;-74
2021/03/06 03:38:21;;;;;;;;;;;;;;;-4.93;76.51;102245.78;5011816;28;20307;-74
2021/03/06 03:40:47;;;;;;;;;;;;;;;-4.96;76.24;102249.00;5011931;28;20422;-74
2021/03/06 03:43:13;;;;;;;;;;;;;;;-5.00;76.39;102249.53;5011894;28;19913;-74
2021/03/06 03:45:38;;;;;;;;;;;;;;;-5.04;76.28;102250.06;5011535;28;20443;-74
2021/03/06 03:48:04;;;;;;;;;;;;;;;-5.06;76.99;102251.59;5011914;28;19909;-74
2021/03/06 03:50:29;;;;;;;;;;;;;;;-5.01;77.55;102246.81;5011925;28;20368;-74
2021/03/06 03:52:55;;;;;;;;;;;;;;;-4.97;76.86;102254.06;5011693;28;19954;-74
2021/03/06 03:55:20;;;;;;;;;;;;;;;-4.97;76.26;102254.06;5011757;28;20291;-74
2021/03/06 03:57:48;;;;;;;;;;;;;;;-4.95;76.93;102257.63;5011625;28;19917;-74
2021/03/06 04:00:18;;;;;;;;;;;;;;;-4.91;76.51;102252.88;5011734;28;19913;-74
2021/03/06 04:02:44;;;;;;;;;;;;;;;-4.91;76.35;102258.03;5011632;28;19914;-74
2021/03/06 04:05:10;;;;;;;;;;;;;;;-4.92;76.45;102258.81;5011383;28;19913;-74
2021/03/06 04:07:39;;;;;;;;;;;;;;;-4.93;75.70;102259.56;5011509;28;20368;-74
2021/03/06 04:10:05;;;;;;;;;;;;;;;-4.98;75.76;102259.94;5003697;28;20004;-74
2021/03/06 04:12:30;;;;;;;;;;;;;;;-5.03;76.63;102267.31;5011537;28;20093;-74
2021/03/06 04:14:55;;;;;;;;;;;;;;;-5.02;77.26;102268.22;5006086;28;19913;-74
2021/03/06 04:17:21;;;;;;;;;;;;;;;-5.01;77.57;102265.75;5011185;28;19976;-74
2021/03/06 04:19:46;;;;;;;;;;;;;;;-5.00;76.76;102269.22;5013623;28;19928;-74
2021/03/06 04:22:11;;;;;;;;;;;;;;;-5.00;77.07;102277.88;5015324;28;19920;-75
2021/03/06 04:24:36;;;;;;;;;;;;;;;-5.01;75.60;102265.75;5015186;28;19919;-74
2021/03/06 04:27:01;;;;;;;;;;;;;;;-5.05;76.81;102274.00;5014820;28;19913;-74
2021/03/06 04:29:27;;;;;;;;;;;;;;;-5.02;76.92;102268.22;5015084;28;19921;-74
2021/03/06 04:31:52;;;;;;;;;;;;;;;-4.99;77.25;102271.94;5015003;28;20016;-74
2021/03/06 04:34:17;;;;;;;;;;;;;;;-5.05;76.97;102262.81;5015116;28;19924;-74
2021/03/06 04:36:42;;;;;;;;;;;;;;;-5.09;76.83;102267.69;5014700;28;19914;-74
2021/03/06 04:39:08;;;;;;;;;;;;;;;-5.08;76.87;102264.34;5014891;28;19960;-74
2021/03/06 04:41:33;;;;;;;;;;;;;;;-5.07;76.30;102260.09;5015012;28;19909;-74
2021/03/06 04:43:59;;;;;;;;;;;;;;;-5.12;76.62;102263.94;5015019;28;20007;-74
2021/03/06 04:46:24;;;;;;;;;;;;;;;-5.19;77.11;102274.50;5005089;28;20418;-74
2021/03/06 04:48:50;;;;;;;;;;;;;;;-5.23;77.01;102263.03;5014794;28;19969;-74
2021/03/06 04:51:15;;;;;;;;;;;;;;;-5.21;76.64;102265.72;5014688;28;19996;-74
2021/03/06 04:53:40;;;;;;;;;;;;;;;-5.23;77.85;102267.31;5014663;28;19917;-74
2021/03/06 04:56:05;;;;;;;;;;;;;;;-5.19;77.79;102274.50;5014367;28;19940;-74
2021/03/06 04:58:31;;;;;;;;;;;;;;;-5.19;77.62;102269.34;5014610;28;19914;-74
2021/03/06 05:00:56;;;;;;;;;;;;;;;-5.18;78.26;102271.16;5014497;28;20404;-74
2021/03/06 05:03:21;;;;;;;;;;;;;;;-5.18;78.24;102271.16;5017092;28;19992;-74
2021/03/06 05:05:46;;;;;;;;;;;;;;;-5.14;79.11;102273.22;5014022;28;19920;-74
2021/03/06 05:08:12;;;;;;;;;;;;;;;-5.11;78.79;102271.81;5014463;28;19914;-74
2021/03/06 05:10:37;;;;;;;;;;;;;;;-5.06;78.44;102274.75;5014133;28;19947;-74
2021/03/06 05:13:02;;;;;;;;;;;;;;;-4.99;78.83;102276.19;5014344;28;19963;-74
2021/03/06 05:15:28;;;;;;;;;;;;;;;-4.91;79.38;102267.44;5013998;28;19917;-74
2021/03/06 05:17:53;;;;;;;;;;;;;;;-4.87;79.07;102270.41;5014200;28;19968;-74
2021/03/06 05:20:18;;;;;;;;;;;;;;;-4.82;78.42;102273.38;5014213;28;19920;-75
2021/03/06 05:22:44;;;;;;;;;;;;;;;-4.80;78.67;102282.09;5014071;28;19913;-74
2021/03/06 05:25:09;;;;;;;;;;;;;;;-4.76;78.04;102283.28;5013749;28;19996;-74
2021/03/06 05:27:34;;;;;;;;;;;;;;;-4.72;78.88;102283.63;5013996;28;19913;-75
2021/03/06 05:30:00;;;;;;;;;;;;;;;-4.69;77.80;102283.00;5013392;28;19913;-74
2021/03/06 05:32:25;;;;;;;;;;;;;;;-4.60;78.48;102285.44;5014056;28;20332;-74
2021/03/06 05:34:50;;;;;;;;;;;;;;;-4.54;78.65;102280.78;5013882;28;19920;-75
2021/03/06 05:37:15;;;;;;;;;;;;;;;-4.49;78.56;102289.81;5013577;28;19921;-74
2021/03/06 05:39:41;;;;;;;;;;;;;;;-4.46;78.41;102292.63;4988145;28;19909;-74
2021/03/06 05:42:08;;;;;;;;;;;;;;;-4.43;79.22;102292.88;5004488;28;20442;-74
2021/03/06 05:44:34;;;;;;;;;;;;;;;-4.38;78.53;102289.00;5013788;28;19914;-74
2021/03/06 05:47:00;;;;;;;;;;;;;;;-4.42;77.94;102286.97;5013390;28;19920;-75
2021/03/06 05:49:25;;;;;;;;;;;;;;;-4.42;78.42;102298.16;4987960;28;19920;-75
2021/03/06 05:51:51;;;;;;;;;;;;;;;-4.37;78.05;102297.66;5013514;28;20295;-74
2021/03/06 05:54:17;;;;;;;;;;;;;;;-4.38;78.24;102296.72;5013474;28;19920;-75
2021/03/06 05:56:43;;;;;;;;;;;;;;;-4.35;77.36;102296.09;5013131;28;20016;-75
2021/03/06 05:59:10;;;;;;;;;;;;;;;-4.33;77.78;102297.13;5013421;28;19917;-74
2021/03/06 06:01:36;;;;;;;;;;;;;;;-4.34;78.18;102300.50;5013373;28;19913;-74
2021/03/06 06:04:02;;;;;;;;;;;;;;;-4.32;77.78;102306.66;5013375;28;19924;-75
2021/03/06 06:06:28;;;;;;;;;;;;;;;-4.28;78.31;102300.97;5035002;22;20516;-72
2021/03/06 06:08:54;;;;;;;;;;;;;;;-4.25;78.42;102314.13;5012971;28;19921;-72
2021/03/06 06:11:19;;;;;;;;;;;;;;;-4.20;77.27;102311.13;5013168;28;20443;-72
2021/03/06 06:13:44;;;;;;;;;;;;;;;-4.16;78.36;102322.63;5013282;28;19920;-69
2021/03/06 06:16:10;;;;;;;;;;;;;;;-4.12;77.07;102319.50;5012905;28;19913;-69
2021/03/06 06:18:35;;;;;;;;;;;;;;;-4.08;77.76;102323.25;5005054;28;19952;-69
2021/03/06 06:21:00;;;;;;;;;;;;;;;-4.05;78.02;102329.53;5001919;28;19920;-69
2021/03/06 06:23:25;;;;;;;;;;;;;;;-3.99;78.38;102322.28;5001485;28;19947;-69
2021/03/06 06:25:51;;;;;;;;;;;;;;;-3.91;77.63;102322.00;5002892;28;20209;-69
2021/03/06 06:28:16;;;;;;;;;;;;;;;-3.79;78.54;102328.16;5004794;28;19921;-69
2021/03/06 06:30:42;;;;;;;;;;;;;;;-3.65;77.87;102330.16;5004151;28;19921;-69
2021/03/06 06:33:07;;;;;;;;;;;;;;;-3.54;77.79;102334.53;4992497;28;19910;-69
2021/03/06 06:35:41;;;;;;;;;;;;;;;-3.42;77.68;102342.31;5000261;28;19972;-69
2021/03/06 06:38:07;;;;;;;;;;;;;;;-3.33;77.47;102339.56;4993643;28;19920;-69
2021/03/06 06:40:37;;;;;;;;;;;;;;;-3.23;77.48;102343.78;5001255;28;20296;-69
2021/03/06 06:43:19;;;;;;;;;;;;;;;-3.14;77.40;102342.81;5003640;28;19940;-69
2021/03/06 06:45:45;;;;;;;;;;;;;;;-3.02;77.48;102341.97;5003542;28;19983;-69
2021/03/06 06:48:10;;;;;;;;;;;;;;;-2.89;77.20;102347.28;5001021;28;19953;-69
2021/03/06 06:50:35;;;;;;;;;;;;;;;-2.78;75.93;102353.28;5001080;28;19924;-69
2021/03/06 06:53:01;;;;;;;;;;;;;;;-2.70;75.73;102347.00;5004050;28;20012;-69
2021/03/06 06:55:36;;;;;;;;;;;;;;;-2.63;75.73;102353.56;5004166;28;19913;-69
2021/03/06 06:58:01;;;;;;;;;;;;;;;-2.52;75.65;102357.84;5001252;28;19914;-69
2021/03/06 07:00:28;;;;;;;;;;;;;;;-2.43;75.47;102358.56;5000917;28;19968;-69
2021/03/06 07:02:54;;;;;;;;;;;;;;;-2.28;75.10;102353.63;5002875;28;19914;-69
2021/03/06 07:05:33;;;;;;;;;;;;;;;-2.21;75.13;102361.97;5004012;28;19913;-69
2021/03/06 07:07:59;;;;;;;;;;;;;;;-2.12;74.96;102361.75;5003779;28;19914;-70
2021/03/06 07:10:31;;;;;;;;;;;;;;;-2.02;74.90;102368.50;5000711;28;19918;-69
2021/03/06 07:12:58;;;;;;;;;;;;;;;-1.94;75.02;102377.72;5003164;28;19918;-69
2021/03/06 07:15:24;;;;;;;;;;;;;;;-1.81;74.34;102370.09;5003825;28;19936;-69
2021/03/06 07:17:51;;;;;;;;;;;;;;;-1.70;74.25;102362.19;5002720;28;20468;-69
2021/03/06 07:20:19;;;;;;;;;;;;;;;-1.63;73.86;102367.03;5000651;28;19920;-69
2021/03/06 07:22:45;;;;;;;;;;;;;;;-1.55;74.33;102358.13;5001425;28;19999;-69
2021/03/06 07:25:10;;;;;;;;;;;;;;;-1.47;74.15;102366.44;5003837;28;19976;-69
2021/03/06 07:27:35;;;;;;;;;;;;;;;-1.36;73.48;102366.44;5003929;28;20380;-70
2021/03/06 07:30:00;;;;;;;;;;;;;;;-1.30;73.69;102359.91;5000780;28;19917;-69
2021/03/06 07:32:29;;;;;;;;;;;;;;;-1.22;73.52;102358.75;5000500;28;20276;-69
2021/03/06 07:35:00;;;;;;;;;;;;;;;-1.13;72.31;102354.19;5002683;28;19913;-69
2021/03/06 07:37:26;;;;;;;;;;;;;;;-1.05;72.81;102357.31;5003810;28;19917;-69
2021/03/06 07:39:54;;;;;;;;;;;;;;;-0.99;71.86;102356.06;5002393;28;20265;-69
2021/03/06 07:42:38;;;;;;;;;;;;;;;-0.91;71.41;102362.69;5000466;28;19913;-69
2021/03/06 07:45:04;;;;;;;;;;;;;;;-0.78;72.07;102366.16;4992511;28;20280;-69
2021/03/06 07:47:32;;;;;;;;;;;;;;;-0.75;71.09;102361.16;5000258;28;19921;-69
2021/03/06 07:49:59;;;;;;;;;;;;;;;-0.67;70.85;102360.00;5002928;28;19914;-69
2021/03/06 07:52:24;;;;;;;;;;;;;;;-0.59;70.89;102363.13;5003650;28;19917;-69
2021/03/06 07:54:50;;;;;;;;;;;;;;;-0.56;70.58;102366.81;5006067;28;20372;-69
2021/03/06 07:57:15;;;;;;;;;;;;;;;-0.49;70.32;102353.47;5004083;28;20331;-69
2021/03/06 07:59:44;;;;;;;;;;;;;;;-0.38;70.68;102361.97;5004477;28;19989;-69
2021/03/06 08:02:27;;;;;;;;;;;;;;;-0.30;70.00;102360.78;5007623;28;19913;-69
2021/03/06 08:04:53;;;;;;;;;;;;;;;-0.17;69.11;102354.72;5005921;28;19917;-69
2021/03/06 08:07:18;;;;;;;;;;;;;;;-0.06;70.47;102361.50;5003685;28;20376;-69
2021/03/06 08:09:57;;;;;;;;;;;;;;;0.05;69.50;102354.44;5004670;28;20287;-69
2021/03/06 08:12:30;;;;;;;;;;;;;;;0.05;68.88;102351.84;5007375;28;20303;-69
2021/03/06 08:14:55;;;;;;;;;;;;;;;0.13;68.98;102350.66;5005146;28;19913;-69
2021/03/06 08:17:29;;;;;;;;;;;;;;;0.30;67.90;102351.75;4986365;28;19968;-69
2021/03/06 08:19:55;;;;;;;;;;;;;;;0.38;67.95;102353.13;5006017;28;19960;-69
2021/03/06 08:22:20;;;;;;;;;;;;;;;0.39;67.17;102352.34;5007240;28;19941;-69
2021/03/06 08:24:45;;;;;;;;;;;;;;;0.48;67.15;102356.34;5006488;28;19924;-69
2021/03/06 08:27:12;;;;;;;;;;;;;;;0.50;66.47;102358.22;5003538;28;20368;-70
2021/03/06 08:29:38;;;;;;;;;;;;;;;0.57;67.20;102341.31;5003785;28;19914;-69
2021/03/06 08:32:04;;;;;;;;;;;;;;;0.69;66.33;102349.00;5006932;28;20367;-69
2021/03/06 08:34:32;;;;;;;;;;;;;;;0.72;65.38;102349.19;5006954;28;19917;-69
2021/03/06 08:37:15;;;;;;;;;;;;;;;0.75;65.54;102352.88;4986574;28;19914;-69
2021/03/06 08:39:42;;;;;;;;;;;;;;;0.86;64.52;102357.06;5003782;28;19964;-69
2021/03/06 08:42:07;;;;;;;;;;;;;;;0.96;65.51;102352.41;4989344;28;20439;-69
2021/03/06 08:44:33;;;;;;;;;;;;;;;0.96;64.38;102360.22;5006846;28;20004;-69
2021/03/06 08:46:58;;;;;;;;;;;;;;;1.06;64.04;102349.56;5003765;28;19917;-69
2021/03/06 08:49:24;;;;;;;;;;;;;;;1.18;64.91;102352.00;5003319;28;19999;-69
2021/03/06 08:51:49;;;;;;;;;;;;;;;1.35;64.10;102358.25;5004653;28;19918;-69
2021/03/06 08:54:16;;;;;;;;;;;;;;;1.36;63.44;102352.25;5006626;28;19914;-69
2021/03/06 08:56:41;;;;;;;;;;;;;;;1.43;64.19;102357.00;4988554;28;19919;-69
2021/03/06 08:59:06;;;;;;;;;;;;;;;1.52;63.18;102347.19;5003135;28;19913;-70
2021/03/06 09:01:35;;;;;;;;;;;;;;;1.57;62.39;102343.09;5003093;28;19952;-69
2021/03/06 09:04:00;;;;;;;;;;;;;;;1.59;63.04;102348.41;5005686;28;19913;-69
2021/03/06 09:06:35;;;;;;;;;;;;;;;1.78;62.10;102350.41;5005450;28;20292;-69
2021/03/06 09:09:00;;;;;;;;;;;;;;;1.85;62.26;102336.94;5002729;28;19920;-69
2021/03/06 09:11:26;;;;;;;;;;;;;;;1.84;61.89;102338.66;5006295;28;20007;-70
2021/03/06 09:13:52;;;;;;;;;;;;;;;1.94;61.08;102337.47;5004652;28;19917;-69
2021/03/06 09:16:18;;;;;;;;;;;;;;;2.08;60.36;102335.66;5002612;28;19913;-69
2021/03/06 09:18:43;;;;;;;;;;;;;;;2.12;60.72;102335.94;5003569;28;20446;-69
2021/03/06 09:21:14;;;;;;;;;;;;;;;2.22;60.64;102326.03;5006093;28;19913;-69
2021/03/06 09:23:45;;;;;;;;;;;;;;;2.29;61.03;102328.16;5006146;28;19913;-69
2021/03/06 09:26:13;;;;;;;;;;;;;;;2.32;60.61;102331.81;4995255;28;19917;-69
2021/03/06 09:28:39;;;;;;;;;;;;;;;2.42;60.46;102323.72;5002682;28;19918;-69
2021/03/06 09:31:14;;;;;;;;;;;;;;;2.50;59.54;102334.56;4994465;28;19924;-69
2021/03/06 09:33:40;;;;;;;;;;;;;;;2.56;59.53;102319.25;5002695;28;19972;-69
2021/03/06 09:36:08;;;;;;;;;;;;;;;2.61;59.11;102325.63;5005668;28;20387;-69
2021/03/06 09:38:41;;;;;;;;;;;;;;;2.61;59.77;102320.41;5005727;28;19975;-69
2021/03/06 09:41:06;;;;;;;;;;;;;;;2.76;58.15;102319.47;4994662;28;20008;-70
2021/03/06 09:43:35;;;;;;;;;;;;;;;2.83;59.33;102309.44;5002436;28;19953;-69
2021/03/06 09:46:01;;;;;;;;;;;;;;;3.02;59.26;102316.53;5004982;28;20007;-70
2021/03/06 09:48:27;;;;;;;;;;;;;;;3.13;58.24;102305.78;5005665;28;19980;-70
2021/03/06 09:50:54;;;;;;;;;;;;;;;3.21;58.08;102314.91;5003785;28;19968;-69
2021/03/06 09:53:21;;;;;;;;;;;;;;;3.37;57.34;102303.53;5002190;28;19913;-69
2021/03/06 09:55:47;;;;;;;;;;;;;;;3.45;57.64;102310.94;5002862;28;19984;-69
2021/03/06 09:58:23;;;;;;;;;;;;;;;3.51;57.05;102303.44;5005483;28;19917;-69
2021/03/06 10:00:48;;;;;;;;;;;;;;;3.70;57.38;102304.38;5004235;28;19918;-69
2021/03/06 10:03:29;;;;;;;;;;;;;;;3.80;55.75;102313.53;5002045;28;19914;-69
2021/03/06 10:05:56;;;;;;;;;;;;;;;3.88;54.55;102323.56;5003852;28;20017;-69
2021/03/06 10:08:21;;;;;;;;;;;;;;;3.78;55.37;102308.25;5005136;28;20362;-70
2021/03/06 10:10:48;;;;;;;;;;;;;;;3.85;55.10;102310.38;5004100;28;19952;-70
2021/03/06 10:13:15;;;;;;;;;;;;;;;3.87;54.79;102306.09;5001912;28;19914;-70
2021/03/06 10:15:40;;;;;;;;;;;;;;;4.06;54.38;102302.69;5001712;28;19921;-70
2021/03/06 10:18:06;;;;;;;;;;;;;;;3.97;55.42;102291.75;5004998;28;19975;-69
2021/03/06 10:20:31;;;;;;;;;;;;;;;3.92;53.66;102304.59;5005003;28;19924;-69
2021/03/06 10:22:57;;;;;;;;;;;;;;;4.02;54.77;102305.06;5002685;28;19921;-70
2021/03/06 10:25:23;;;;;;;;;;;;;;;4.14;53.84;102290.00;5001370;28;20622;-69
2021/03/06 10:27:48;;;;;;;;;;;;;;;4.14;53.37;102297.84;5002832;28;20020;-69
2021/03/06 10:30:17;;;;;;;;;;;;;;;4.25;54.05;102299.22;5004779;28;19944;-69
2021/03/06 10:32:46;;;;;;;;;;;;;;;4.37;52.48;102304.13;5004429;28;19999;-69
2021/03/06 10:35:30;;;;;;;;;;;;;;;4.45;52.93;102302.78;5001130;28;20016;-69
2021/03/06 10:37:56;;;;;;;;;;;;;;;4.60;52.08;102300.00;5003553;28;19914;-70
2021/03/06 10:40:39;;;;;;;;;;;;;;;4.62;51.87;102285.28;5004691;28;19927;-70
2021/03/06 10:43:04;;;;;;;;;;;;;;;4.52;51.80;102298.75;5001336;28;19913;-69
2021/03/06 10:45:30;;;;;;;;;;;;;;;4.62;51.55;102303.56;5000962;28;19921;-69
2021/03/06 10:48:00;;;;;;;;;;;;;;;4.55;51.43;102318.06;5003245;28;19913;-70
2021/03/06 10:50:26;;;;;;;;;;;;;;;4.31;51.16;102299.50;5004412;28;20368;-70
2021/03/06 10:52:52;;;;;;;;;;;;;;;4.30;50.99;102292.50;5002792;28;19913;-69
2021/03/06 10:55:32;;;;;;;;;;;;;;;4.29;51.90;102292.41;5000810;28;19916;-70
2021/03/06 10:57:57;;;;;;;;;;;;;;;4.49;51.02;102303.84;5003493;28;19937;-70
2021/03/06 11:00:23;;;;;;;;;;;;;;;4.78;50.84;102299.94;5004390;28;20654;-69
2021/03/06 11:02:55;;;;;;;;;;;;;;;4.94;50.89;102289.34;5003133;28;19913;-70
2021/03/06 11:05:21;;;;;;;;;;;;;;;4.93;50.16;102291.91;5002713;28;19914;-70
2021/03/06 11:07:47;;;;;;;;;;;;;;;4.95;50.11;102290.22;5001600;28;19968;-70
2021/03/06 11:10:13;;;;;;;;;;;;;;;4.86;50.47;102287.22;5004154;28;19917;-70
2021/03/06 11:12:38;;;;;;;;;;;;;;;4.65;50.62;102300.22;5004162;28;20368;-70
2021/03/06 11:15:07;;;;;;;;;;;;;;;4.55;50.47;102291.03;5000670;28;19921;-70
2021/03/06 11:17:32;;;;;;;;;;;;;;;4.51;50.36;102281.28;5000630;28;19953;-69
2021/03/06 11:19:57;;;;;;;;;;;;;;;4.66;50.42;102273.22;5003256;28;19960;-69
2021/03/06 11:22:23;;;;;;;;;;;;;;;4.84;49.46;102272.31;5004161;28;20445;-69
2021/03/06 11:24:48;;;;;;;;;;;;;;;4.90;48.18;102276.03;5002824;28;19913;-69
2021/03/06 11:27:13;;;;;;;;;;;;;;;4.73;49.78;102268.34;5000063;28;19914;-69
2021/03/06 11:29:38;;;;;;;;;;;;;;;4.91;49.16;102264.78;5000399;28;19920;-69
2021/03/06 11:32:04;;;;;;;;;;;;;;;5.03;48.47;102260.97;5003757;28;20080;-69
2021/03/06 11:34:29;;;;;;;;;;;;;;;5.28;48.81;102262.03;5003910;28;19917;-69
2021/03/06 11:36:54;;;;;;;;;;;;;;;5.32;47.42;102252.59;5001605;28;20011;-70
2021/03/06 11:39:19;;;;;;;;;;;;;;;5.32;46.30;102256.13;5000536;28;19913;-70
2021/03/06 11:41:45;;;;;;;;;;;;;;;5.35;46.39;102247.50;5001125;28;19920;-70
2021/03/06 11:44:10;;;;;;;;;;;;;;;5.50;45.85;102250.75;5003903;28;19935;-70
2021/03/06 11:46:36;;;;;;;;;;;;;;;5.83;45.13;102227.66;5003478;28;19913;-70
2021/03/06 11:49:01;;;;;;;;;;;;;;;6.07;45.05;102226.91;5000799;28;20000;-70
2021/03/06 11:51:27;;;;;;;;;;;;;;;6.49;44.24;102232.88;5000334;28;19917;-70
2021/03/06 11:53:52;;;;;;;;;;;;;;;6.75;42.36;102246.09;5002145;28;19922;-70
2021/03/06 11:56:17;;;;;;;;;;;;;;;6.50;43.23;102229.44;5003389;28;19952;-70
2021/03/06 11:58:43;;;;;;;;;;;;;;;6.31;42.94;102220.00;5003278;28;19914;-70
2021/03/06 12:01:08;;;;;;;;;;;;;;;5.82;42.97;102222.38;5000358;28;19921;-70
2021/03/06 12:03:33;;;;;;;;;;;;;;;5.94;42.39;102222.88;5000334;28;19914;-70
2021/03/06 12:05:58;;;;;;;;;;;;;;;5.74;43.18;102214.22;5002649;28;19917;-69
2021/03/06 12:08:24;;;;;;;;;;;;;;;5.41;42.98;102208.47;5003463;28;19974;-70
2021/03/06 12:10:49;;;;;;;;;;;;;;;5.77;42.87;102210.81;5002269;28;19963;-70
2021/03/06 12:13:14;;;;;;;;;;;;;;;5.95;42.49;102205.44;5000086;28;19914;-69
2021/03/06 12:15:39;;;;;;;;;;;;;;;6.10;42.92;102199.09;4999975;28;20407;-70
2021/03/06 12:18:05;;;;;;;;;;;;;;;6.27;42.91;102197.09;5003536;28;20507;-69
2021/03/06 12:20:30;;;;;;;;;;;;;;;6.55;43.64;102192.91;5003465;28;19917;-70
2021/03/06 12:22:55;;;;;;;;;;;;;;;6.62;42.31;102180.88;5001443;28;19913;-70
2021/03/06 12:25:21;;;;;;;;;;;;;;;6.70;42.41;102184.69;4999827;28;19920;-69
2021/03/06 12:27:46;;;;;;;;;;;;;;;6.79;41.89;102192.91;5000821;28;20348;-70
2021/03/06 12:30:14;;;;;;;;;;;;;;;6.57;41.43;102181.59;5003414;28;19951;-70
2021/03/06 12:32:40;;;;;;;;;;;;;;;6.85;42.51;102187.84;5003439;28;19917;-70
2021/03/06 12:35:06;;;;;;;;;;;;;;;7.01;41.65;102168.28;4991856;28;19914;-70
2021/03/06 12:37:31;;;;;;;;;;;;;;;7.17;41.56;102169.69;4999998;28;19914;-70
2021/03/06 12:39:56;;;;;;;;;;;;;;;7.44;41.37;102170.63;5003004;28;20340;-70